sensor_id;sensor_type;location;lat;lon;timestamp;P1;durP1;ratioP1;P2;durP2;ratioP2
39918;SDS011;25589;51.552;13.424;2023-09-18T00:00:46;5.43;;;3.97;;
39918;SDS011;25589;51.552;13.424;2023-09-18T00:03:16;4.00;;;3.50;;
39918;SDS011;25589;51.552;13.424;2023-09-18T00:05:46;6.30;;;3.92;;
39918;SDS011;25589;51.552;13.424;2023-09-18T00:08:13;4.43;;;3.63;;
39918;SDS011;25589;51.552;13.424;2023-09-18T00:10:39;4.10;;;3.70;;
39918;SDS011;25589;51.552;13.424;2023-09-18T00:13:05;4.88;;;4.18;;
39918;SDS011;25589;51.552;13.424;2023-09-18T00:15:30;4.40;;;4.00;;
39918;SDS011;25589;51.552;13.424;2023-09-18T00:17:56;4.57;;;4.18;;
39918;SDS011;25589;51.552;13.424;2023-09-18T00:20:22;5.82;;;4.10;;
39918;SDS011;25589;51.552;13.424;2023-09-18T00:22:52;4.80;;;3.88;;
39918;SDS011;25589;51.552;13.424;2023-09-18T00:25:20;4.05;;;3.47;;
39918;SDS011;25589;51.552;13.424;2023-09-18T00:27:47;5.88;;;3.95;;
39918;SDS011;25589;51.552;13.424;2023-09-18T00:30:12;3.95;;;3.55;;
39918;SDS011;25589;51.552;13.424;2023-09-18T00:32:38;5.13;;;3.88;;
39918;SDS011;25589;51.552;13.424;2023-09-18T00:35:03;4.78;;;3.95;;
39918;SDS011;25589;51.552;13.424;2023-09-18T00:37:29;5.25;;;4.30;;
39918;SDS011;25589;51.552;13.424;2023-09-18T00:39:55;4.55;;;4.15;;
39918;SDS011;25589;51.552;13.424;2023-09-18T00:42:20;5.45;;;3.80;;
39918;SDS011;25589;51.552;13.424;2023-09-18T00:44:47;5.07;;;4.20;;
39918;SDS011;25589;51.552;13.424;2023-09-18T00:47:14;4.72;;;3.90;;
39918;SDS011;25589;51.552;13.424;2023-09-18T00:49:40;4.35;;;3.70;;
39918;SDS011;25589;51.552;13.424;2023-09-18T00:52:08;4.30;;;3.88;;
39918;SDS011;25589;51.552;13.424;2023-09-18T00:54:35;5.88;;;4.50;;
39918;SDS011;25589;51.552;13.424;2023-09-18T00:57:04;5.00;;;3.72;;
39918;SDS011;25589;51.552;13.424;2023-09-18T00:59:30;5.15;;;4.47;;
39918;SDS011;25589;51.552;13.424;2023-09-18T01:01:56;4.25;;;3.85;;
39918;SDS011;25589;51.552;13.424;2023-09-18T01:04:22;4.47;;;3.70;;
39918;SDS011;25589;51.552;13.424;2023-09-18T01:06:50;3.90;;;3.60;;
39918;SDS011;25589;51.552;13.424;2023-09-18T01:09:16;4.07;;;3.67;;
39918;SDS011;25589;51.552;13.424;2023-09-18T01:14:23;4.20;;;3.80;;
39918;SDS011;25589;51.552;13.424;2023-09-18T01:16:56;7.75;;;4.15;;
39918;SDS011;25589;51.552;13.424;2023-09-18T01:19:35;5.82;;;4.38;;
39918;SDS011;25589;51.552;13.424;2023-09-18T01:22:03;4.90;;;4.05;;
39918;SDS011;25589;51.552;13.424;2023-09-18T01:24:33;4.53;;;3.83;;
39918;SDS011;25589;51.552;13.424;2023-09-18T01:26:59;5.00;;;4.18;;
39918;SDS011;25589;51.552;13.424;2023-09-18T01:29:25;8.00;;;4.20;;
39918;SDS011;25589;51.552;13.424;2023-09-18T01:31:51;5.30;;;4.03;;
39918;SDS011;25589;51.552;13.424;2023-09-18T01:34:18;4.75;;;4.25;;
39918;SDS011;25589;51.552;13.424;2023-09-18T01:36:46;4.65;;;3.92;;
39918;SDS011;25589;51.552;13.424;2023-09-18T01:39:13;4.35;;;3.95;;
39918;SDS011;25589;51.552;13.424;2023-09-18T01:41:39;5.03;;;4.53;;
39918;SDS011;25589;51.552;13.424;2023-09-18T01:44:06;4.80;;;4.35;;
39918;SDS011;25589;51.552;13.424;2023-09-18T01:46:32;4.63;;;4.20;;
39918;SDS011;25589;51.552;13.424;2023-09-18T01:49:01;5.03;;;4.38;;
39918;SDS011;25589;51.552;13.424;2023-09-18T01:51:28;5.07;;;4.35;;
39918;SDS011;25589;51.552;13.424;2023-09-18T01:53:55;5.75;;;4.18;;
39918;SDS011;25589;51.552;13.424;2023-09-18T01:56:21;5.18;;;3.92;;
39918;SDS011;25589;51.552;13.424;2023-09-18T01:58:47;7.55;;;4.68;;
39918;SDS011;25589;51.552;13.424;2023-09-18T02:01:12;7.93;;;4.50;;
39918;SDS011;25589;51.552;13.424;2023-09-18T02:03:38;4.97;;;4.45;;
39918;SDS011;25589;51.552;13.424;2023-09-18T02:06:07;4.97;;;4.28;;
39918;SDS011;25589;51.552;13.424;2023-09-18T02:08:34;4.78;;;4.30;;
39918;SDS011;25589;51.552;13.424;2023-09-18T02:10:59;5.47;;;3.92;;
39918;SDS011;25589;51.552;13.424;2023-09-18T02:13:25;6.35;;;4.40;;
39918;SDS011;25589;51.552;13.424;2023-09-18T02:15:51;6.50;;;4.65;;
39918;SDS011;25589;51.552;13.424;2023-09-18T02:18:17;5.80;;;4.75;;
39918;SDS011;25589;51.552;13.424;2023-09-18T02:20:43;6.82;;;4.57;;
39918;SDS011;25589;51.552;13.424;2023-09-18T02:23:12;5.78;;;4.20;;
39918;SDS011;25589;51.552;13.424;2023-09-18T02:25:38;8.73;;;4.55;;
39918;SDS011;25589;51.552;13.424;2023-09-18T02:28:05;5.15;;;4.43;;
39918;SDS011;25589;51.552;13.424;2023-09-18T02:30:31;5.78;;;4.13;;
39918;SDS011;25589;51.552;13.424;2023-09-18T02:32:57;4.60;;;4.10;;
39918;SDS011;25589;51.552;13.424;2023-09-18T02:35:22;5.10;;;4.00;;
39918;SDS011;25589;51.552;13.424;2023-09-18T02:37:48;5.75;;;4.50;;
39918;SDS011;25589;51.552;13.424;2023-09-18T02:40:14;5.75;;;4.40;;
39918;SDS011;25589;51.552;13.424;2023-09-18T02:42:39;4.97;;;4.00;;
39918;SDS011;25589;51.552;13.424;2023-09-18T02:45:05;5.75;;;4.88;;
39918;SDS011;25589;51.552;13.424;2023-09-18T02:47:31;5.57;;;4.70;;
39918;SDS011;25589;51.552;13.424;2023-09-18T02:49:58;5.80;;;4.53;;
39918;SDS011;25589;51.552;13.424;2023-09-18T02:52:24;4.95;;;4.45;;
39918;SDS011;25589;51.552;13.424;2023-09-18T02:54:50;6.45;;;4.70;;
39918;SDS011;25589;51.552;13.424;2023-09-18T02:57:15;6.28;;;4.25;;
39918;SDS011;25589;51.552;13.424;2023-09-18T02:59:41;5.18;;;4.50;;
39918;SDS011;25589;51.552;13.424;2023-09-18T03:02:07;6.97;;;5.05;;
39918;SDS011;25589;51.552;13.424;2023-09-18T03:04:33;6.57;;;4.63;;
39918;SDS011;25589;51.552;13.424;2023-09-18T03:06:59;7.78;;;4.90;;
39918;SDS011;25589;51.552;13.424;2023-09-18T03:09:25;5.47;;;4.93;;
39918;SDS011;25589;51.552;13.424;2023-09-18T03:11:51;6.70;;;4.55;;
39918;SDS011;25589;51.552;13.424;2023-09-18T03:14:16;4.88;;;4.32;;
39918;SDS011;25589;51.552;13.424;2023-09-18T03:16:42;5.82;;;4.75;;
39918;SDS011;25589;51.552;13.424;2023-09-18T03:19:08;5.88;;;5.28;;
39918;SDS011;25589;51.552;13.424;2023-09-18T03:21:34;7.40;;;4.90;;
39918;SDS011;25589;51.552;13.424;2023-09-18T03:24:00;5.43;;;4.93;;
39918;SDS011;25589;51.552;13.424;2023-09-18T03:26:27;6.22;;;4.25;;
39918;SDS011;25589;51.552;13.424;2023-09-18T03:28:52;5.10;;;4.40;;
39918;SDS011;25589;51.552;13.424;2023-09-18T03:31:18;5.15;;;4.28;;
39918;SDS011;25589;51.552;13.424;2023-09-18T03:33:44;9.43;;;4.53;;
39918;SDS011;25589;51.552;13.424;2023-09-18T03:36:09;6.57;;;4.78;;
39918;SDS011;25589;51.552;13.424;2023-09-18T03:38:37;5.65;;;5.13;;
39918;SDS011;25589;51.552;13.424;2023-09-18T03:41:02;6.07;;;4.20;;
39918;SDS011;25589;51.552;13.424;2023-09-18T03:43:28;5.30;;;4.55;;
39918;SDS011;25589;51.552;13.424;2023-09-18T03:45:54;6.50;;;4.53;;
39918;SDS011;25589;51.552;13.424;2023-09-18T03:48:20;5.03;;;4.53;;
39918;SDS011;25589;51.552;13.424;2023-09-18T03:50:47;10.63;;;4.93;;
39918;SDS011;25589;51.552;13.424;2023-09-18T03:53:13;6.47;;;4.60;;
39918;SDS011;25589;51.552;13.424;2023-09-18T03:55:39;5.35;;;4.85;;
39918;SDS011;25589;51.552;13.424;2023-09-18T03:58:04;5.78;;;4.60;;
39918;SDS011;25589;51.552;13.424;2023-09-18T04:00:30;5.13;;;4.63;;
39918;SDS011;25589;51.552;13.424;2023-09-18T04:02:56;4.70;;;4.30;;
39918;SDS011;25589;51.552;13.424;2023-09-18T04:05:22;5.13;;;4.63;;
39918;SDS011;25589;51.552;13.424;2023-09-18T04:07:47;6.80;;;5.00;;
39918;SDS011;25589;51.552;13.424;2023-09-18T04:10:13;5.43;;;4.93;;
39918;SDS011;25589;51.552;13.424;2023-09-18T04:12:48;5.60;;;4.60;;
39918;SDS011;25589;51.552;13.424;2023-09-18T04:15:16;7.10;;;5.20;;
39918;SDS011;25589;51.552;13.424;2023-09-18T04:17:43;5.68;;;5.03;;
39918;SDS011;25589;51.552;13.424;2023-09-18T04:20:09;5.28;;;4.70;;
39918;SDS011;25589;51.552;13.424;2023-09-18T04:22:42;5.15;;;4.57;;
39918;SDS011;25589;51.552;13.424;2023-09-18T04:25:09;7.20;;;5.38;;
39918;SDS011;25589;51.552;13.424;2023-09-18T04:27:36;5.20;;;4.70;;
39918;SDS011;25589;51.552;13.424;2023-09-18T04:30:01;6.97;;;4.70;;
39918;SDS011;25589;51.552;13.424;2023-09-18T04:32:28;6.07;;;5.00;;
39918;SDS011;25589;51.552;13.424;2023-09-18T04:34:54;5.18;;;4.47;;
39918;SDS011;25589;51.552;13.424;2023-09-18T04:37:20;6.40;;;4.55;;
39918;SDS011;25589;51.552;13.424;2023-09-18T04:39:45;7.63;;;5.10;;
39918;SDS011;25589;51.552;13.424;2023-09-18T04:42:11;5.88;;;4.82;;
39918;SDS011;25589;51.552;13.424;2023-09-18T04:44:37;6.07;;;5.28;;
39918;SDS011;25589;51.552;13.424;2023-09-18T04:47:03;6.70;;;4.43;;
39918;SDS011;25589;51.552;13.424;2023-09-18T04:49:29;6.35;;;4.97;;
39918;SDS011;25589;51.552;13.424;2023-09-18T04:51:54;5.50;;;5.00;;
39918;SDS011;25589;51.552;13.424;2023-09-18T04:54:21;5.63;;;5.05;;
39918;SDS011;25589;51.552;13.424;2023-09-18T04:56:47;7.50;;;5.43;;
39918;SDS011;25589;51.552;13.424;2023-09-18T04:59:13;6.22;;;5.05;;
39918;SDS011;25589;51.552;13.424;2023-09-18T05:01:39;6.53;;;5.13;;
39918;SDS011;25589;51.552;13.424;2023-09-18T05:04:05;5.93;;;5.13;;
39918;SDS011;25589;51.552;13.424;2023-09-18T05:06:31;6.82;;;5.20;;
39918;SDS011;25589;51.552;13.424;2023-09-18T05:08:57;6.57;;;5.20;;
39918;SDS011;25589;51.552;13.424;2023-09-18T05:11:23;7.72;;;5.03;;
39918;SDS011;25589;51.552;13.424;2023-09-18T05:13:48;6.05;;;5.15;;
39918;SDS011;25589;51.552;13.424;2023-09-18T05:16:14;6.22;;;5.30;;
39918;SDS011;25589;51.552;13.424;2023-09-18T05:18:40;7.78;;;5.15;;
39918;SDS011;25589;51.552;13.424;2023-09-18T05:21:06;5.65;;;4.93;;
39918;SDS011;25589;51.552;13.424;2023-09-18T05:23:32;6.80;;;5.57;;
39918;SDS011;25589;51.552;13.424;2023-09-18T05:25:57;6.30;;;5.60;;
39918;SDS011;25589;51.552;13.424;2023-09-18T05:28:24;5.88;;;5.28;;
39918;SDS011;25589;51.552;13.424;2023-09-18T05:30:50;6.93;;;5.20;;
39918;SDS011;25589;51.552;13.424;2023-09-18T05:33:15;8.13;;;5.00;;
39918;SDS011;25589;51.552;13.424;2023-09-18T05:35:41;5.68;;;5.05;;
39918;SDS011;25589;51.552;13.424;2023-09-18T05:38:10;5.65;;;5.05;;
39918;SDS011;25589;51.552;13.424;2023-09-18T05:40:36;8.10;;;5.43;;
39918;SDS011;25589;51.552;13.424;2023-09-18T05:43:02;6.85;;;4.70;;
39918;SDS011;25589;51.552;13.424;2023-09-18T05:45:28;5.47;;;4.88;;
39918;SDS011;25589;51.552;13.424;2023-09-18T05:47:54;5.50;;;4.93;;
39918;SDS011;25589;51.552;13.424;2023-09-18T05:50:26;6.55;;;4.70;;
39918;SDS011;25589;51.552;13.424;2023-09-18T05:52:54;6.28;;;5.55;;
39918;SDS011;25589;51.552;13.424;2023-09-18T05:55:24;6.45;;;4.93;;
39918;SDS011;25589;51.552;13.424;2023-09-18T05:57:51;6.32;;;5.00;;
39918;SDS011;25589;51.552;13.424;2023-09-18T06:00:16;5.55;;;4.38;;
39918;SDS011;25589;51.552;13.424;2023-09-18T06:02:43;7.15;;;5.40;;
39918;SDS011;25589;51.552;13.424;2023-09-18T06:05:10;4.90;;;4.40;;
39918;SDS011;25589;51.552;13.424;2023-09-18T06:07:36;7.15;;;5.53;;
39918;SDS011;25589;51.552;13.424;2023-09-18T06:10:02;5.50;;;4.55;;
39918;SDS011;25589;51.552;13.424;2023-09-18T06:12:28;7.38;;;5.20;;
39918;SDS011;25589;51.552;13.424;2023-09-18T06:14:55;7.53;;;5.20;;
39918;SDS011;25589;51.552;13.424;2023-09-18T06:17:20;9.20;;;5.55;;
39918;SDS011;25589;51.552;13.424;2023-09-18T06:19:46;6.20;;;5.03;;
39918;SDS011;25589;51.552;13.424;2023-09-18T06:22:12;5.57;;;5.00;;
39918;SDS011;25589;51.552;13.424;2023-09-18T06:24:39;7.85;;;4.88;;
39918;SDS011;25589;51.552;13.424;2023-09-18T06:27:04;8.05;;;5.80;;
39918;SDS011;25589;51.552;13.424;2023-09-18T06:29:31;5.60;;;4.80;;
39918;SDS011;25589;51.552;13.424;2023-09-18T06:31:57;6.13;;;4.85;;
39918;SDS011;25589;51.552;13.424;2023-09-18T06:34:23;5.75;;;4.57;;
39918;SDS011;25589;51.552;13.424;2023-09-18T06:36:49;5.30;;;4.80;;
39918;SDS011;25589;51.552;13.424;2023-09-18T06:39:15;8.15;;;5.55;;
39918;SDS011;25589;51.552;13.424;2023-09-18T06:41:41;5.60;;;4.88;;
39918;SDS011;25589;51.552;13.424;2023-09-18T06:44:11;5.60;;;4.55;;
39918;SDS011;25589;51.552;13.424;2023-09-18T06:46:36;8.02;;;4.25;;
39918;SDS011;25589;51.552;13.424;2023-09-18T06:49:02;5.60;;;4.70;;
39918;SDS011;25589;51.552;13.424;2023-09-18T06:51:28;7.38;;;5.00;;
39918;SDS011;25589;51.552;13.424;2023-09-18T06:53:54;5.10;;;4.60;;
39918;SDS011;25589;51.552;13.424;2023-09-18T06:56:22;7.57;;;5.07;;
39918;SDS011;25589;51.552;13.424;2023-09-18T06:58:50;6.30;;;5.55;;
39918;SDS011;25589;51.552;13.424;2023-09-18T07:01:17;5.78;;;4.78;;
39918;SDS011;25589;51.552;13.424;2023-09-18T07:03:46;6.57;;;5.18;;
39918;SDS011;25589;51.552;13.424;2023-09-18T07:06:13;6.63;;;4.90;;
39918;SDS011;25589;51.552;13.424;2023-09-18T07:08:41;5.97;;;4.82;;
39918;SDS011;25589;51.552;13.424;2023-09-18T07:11:09;8.38;;;5.18;;
39918;SDS011;25589;51.552;13.424;2023-09-18T07:13:36;5.25;;;4.72;;
39918;SDS011;25589;51.552;13.424;2023-09-18T07:16:02;6.72;;;4.80;;
39918;SDS011;25589;51.552;13.424;2023-09-18T07:18:28;5.85;;;4.85;;
39918;SDS011;25589;51.552;13.424;2023-09-18T07:20:54;5.38;;;4.72;;
39918;SDS011;25589;51.552;13.424;2023-09-18T07:23:19;6.32;;;4.78;;
39918;SDS011;25589;51.552;13.424;2023-09-18T07:25:47;5.93;;;4.68;;
39918;SDS011;25589;51.552;13.424;2023-09-18T07:28:13;9.07;;;4.47;;
39918;SDS011;25589;51.552;13.424;2023-09-18T07:30:42;5.43;;;4.80;;
39918;SDS011;25589;51.552;13.424;2023-09-18T07:33:09;6.28;;;4.80;;
39918;SDS011;25589;51.552;13.424;2023-09-18T07:35:35;5.93;;;4.72;;
39918;SDS011;25589;51.552;13.424;2023-09-18T07:38:01;5.25;;;4.75;;
39918;SDS011;25589;51.552;13.424;2023-09-18T07:40:26;5.03;;;4.53;;
39918;SDS011;25589;51.552;13.424;2023-09-18T07:42:52;5.97;;;4.45;;
39918;SDS011;25589;51.552;13.424;2023-09-18T07:45:18;5.72;;;4.85;;
39918;SDS011;25589;51.552;13.424;2023-09-18T07:47:44;6.50;;;4.47;;
39918;SDS011;25589;51.552;13.424;2023-09-18T07:50:09;5.97;;;4.40;;
39918;SDS011;25589;51.552;13.424;2023-09-18T07:52:35;5.53;;;4.97;;
39918;SDS011;25589;51.552;13.424;2023-09-18T07:55:01;4.80;;;4.20;;
39918;SDS011;25589;51.552;13.424;2023-09-18T07:57:27;5.80;;;4.60;;
39918;SDS011;25589;51.552;13.424;2023-09-18T08:00:00;7.90;;;4.72;;
39918;SDS011;25589;51.552;13.424;2023-09-18T08:02:37;4.80;;;4.22;;
39918;SDS011;25589;51.552;13.424;2023-09-18T08:05:03;5.97;;;4.75;;
39918;SDS011;25589;51.552;13.424;2023-09-18T08:07:30;6.07;;;4.55;;
39918;SDS011;25589;51.552;13.424;2023-09-18T08:09:55;5.38;;;4.47;;
39918;SDS011;25589;51.552;13.424;2023-09-18T08:12:22;5.05;;;4.40;;
39918;SDS011;25589;51.552;13.424;2023-09-18T08:14:48;4.60;;;4.05;;
39918;SDS011;25589;51.552;13.424;2023-09-18T08:17:15;8.18;;;4.85;;
39918;SDS011;25589;51.552;13.424;2023-09-18T08:19:41;4.70;;;4.30;;
39918;SDS011;25589;51.552;13.424;2023-09-18T08:22:06;5.93;;;4.60;;
39918;SDS011;25589;51.552;13.424;2023-09-18T08:24:32;8.90;;;4.90;;
39918;SDS011;25589;51.552;13.424;2023-09-18T08:26:57;6.45;;;4.35;;
39918;SDS011;25589;51.552;13.424;2023-09-18T08:29:23;4.85;;;4.35;;
39918;SDS011;25589;51.552;13.424;2023-09-18T08:31:49;6.95;;;4.65;;
39918;SDS011;25589;51.552;13.424;2023-09-18T08:34:15;6.00;;;4.28;;
39918;SDS011;25589;51.552;13.424;2023-09-18T08:36:41;5.72;;;4.30;;
39918;SDS011;25589;51.552;13.424;2023-09-18T08:39:06;5.93;;;5.28;;
39918;SDS011;25589;51.552;13.424;2023-09-18T08:41:33;5.88;;;4.72;;
39918;SDS011;25589;51.552;13.424;2023-09-18T08:44:03;7.32;;;4.30;;
39918;SDS011;25589;51.552;13.424;2023-09-18T08:46:29;4.15;;;3.80;;
39918;SDS011;25589;51.552;13.424;2023-09-18T08:48:56;4.97;;;4.22;;
39918;SDS011;25589;51.552;13.424;2023-09-18T08:51:23;5.30;;;4.05;;
39918;SDS011;25589;51.552;13.424;2023-09-18T08:53:49;4.55;;;4.15;;
39918;SDS011;25589;51.552;13.424;2023-09-18T08:56:16;6.55;;;4.80;;
39918;SDS011;25589;51.552;13.424;2023-09-18T08:58:43;6.75;;;4.20;;
39918;SDS011;25589;51.552;13.424;2023-09-18T09:01:09;4.20;;;3.80;;
39918;SDS011;25589;51.552;13.424;2023-09-18T09:03:39;7.95;;;4.32;;
39918;SDS011;25589;51.552;13.424;2023-09-18T09:06:06;7.53;;;4.10;;
39918;SDS011;25589;51.552;13.424;2023-09-18T09:08:33;4.63;;;4.15;;
39918;SDS011;25589;51.552;13.424;2023-09-18T09:10:59;5.75;;;4.13;;
39918;SDS011;25589;51.552;13.424;2023-09-18T09:13:25;5.40;;;4.00;;
39918;SDS011;25589;51.552;13.424;2023-09-18T09:15:52;5.75;;;3.83;;
39918;SDS011;25589;51.552;13.424;2023-09-18T09:18:21;6.35;;;4.13;;
39918;SDS011;25589;51.552;13.424;2023-09-18T09:20:57;5.50;;;4.13;;
39918;SDS011;25589;51.552;13.424;2023-09-18T09:23:28;4.63;;;3.63;;
39918;SDS011;25589;51.552;13.424;2023-09-18T09:26:14;4.72;;;3.63;;
39918;SDS011;25589;51.552;13.424;2023-09-18T09:28:42;4.55;;;4.15;;
39918;SDS011;25589;51.552;13.424;2023-09-18T09:31:09;6.13;;;4.88;;
39918;SDS011;25589;51.552;13.424;2023-09-18T09:33:40;4.90;;;3.67;;
39918;SDS011;25589;51.552;13.424;2023-09-18T09:36:18;4.88;;;3.60;;
39918;SDS011;25589;51.552;13.424;2023-09-18T09:38:44;3.42;;;3.13;;
39918;SDS011;25589;51.552;13.424;2023-09-18T09:41:13;5.32;;;3.72;;
39918;SDS011;25589;51.552;13.424;2023-09-18T09:43:41;7.25;;;4.47;;
39918;SDS011;25589;51.552;13.424;2023-09-18T09:46:07;4.70;;;3.92;;
39918;SDS011;25589;51.552;13.424;2023-09-18T09:48:57;10.15;;;4.10;;
39918;SDS011;25589;51.552;13.424;2023-09-18T09:51:24;5.40;;;3.88;;
39918;SDS011;25589;51.552;13.424;2023-09-18T09:53:49;5.22;;;3.42;;
39918;SDS011;25589;51.552;13.424;2023-09-18T09:56:16;5.30;;;3.40;;
39918;SDS011;25589;51.552;13.424;2023-09-18T09:59:02;4.97;;;3.92;;
39918;SDS011;25589;51.552;13.424;2023-09-18T10:01:34;6.07;;;3.95;;
39918;SDS011;25589;51.552;13.424;2023-09-18T10:04:04;5.32;;;3.83;;
39918;SDS011;25589;51.552;13.424;2023-09-18T10:06:33;5.43;;;3.40;;
39918;SDS011;25589;51.552;13.424;2023-09-18T10:09:01;4.28;;;3.72;;
39918;SDS011;25589;51.552;13.424;2023-09-18T10:11:29;4.43;;;4.03;;
39918;SDS011;25589;51.552;13.424;2023-09-18T10:16:25;4.53;;;3.42;;
39918;SDS011;25589;51.552;13.424;2023-09-18T10:21:52;4.35;;;3.70;;
39918;SDS011;25589;51.552;13.424;2023-09-18T10:24:31;4.15;;;3.70;;
39918;SDS011;25589;51.552;13.424;2023-09-18T10:27:02;7.68;;;3.40;;
39918;SDS011;25589;51.552;13.424;2023-09-18T10:29:29;6.63;;;3.67;;
39918;SDS011;25589;51.552;13.424;2023-09-18T10:31:56;5.43;;;3.80;;
39918;SDS011;25589;51.552;13.424;2023-09-18T10:34:22;5.38;;;3.58;;
39918;SDS011;25589;51.552;13.424;2023-09-18T10:36:49;4.82;;;3.70;;
39918;SDS011;25589;51.552;13.424;2023-09-18T10:39:16;4.45;;;3.85;;
39918;SDS011;25589;51.552;13.424;2023-09-18T10:41:48;6.68;;;3.95;;
39918;SDS011;25589;51.552;13.424;2023-09-18T10:44:16;4.70;;;3.80;;
39918;SDS011;25589;51.552;13.424;2023-09-18T10:46:43;5.82;;;3.80;;
39918;SDS011;25589;51.552;13.424;2023-09-18T10:49:10;6.80;;;3.72;;
39918;SDS011;25589;51.552;13.424;2023-09-18T10:51:36;6.13;;;3.00;;
39918;SDS011;25589;51.552;13.424;2023-09-18T10:54:07;4.53;;;3.40;;
39918;SDS011;25589;51.552;13.424;2023-09-18T10:56:33;5.30;;;3.42;;
39918;SDS011;25589;51.552;13.424;2023-09-18T10:59:00;6.20;;;3.60;;
39918;SDS011;25589;51.552;13.424;2023-09-18T11:01:29;5.32;;;3.53;;
39918;SDS011;25589;51.552;13.424;2023-09-18T11:03:59;3.92;;;3.55;;
39918;SDS011;25589;51.552;13.424;2023-09-18T11:06:26;5.00;;;3.70;;
39918;SDS011;25589;51.552;13.424;2023-09-18T11:08:58;3.72;;;3.38;;
39918;SDS011;25589;51.552;13.424;2023-09-18T11:11:29;3.47;;;3.15;;
39918;SDS011;25589;51.552;13.424;2023-09-18T11:13:57;7.20;;;3.80;;
39918;SDS011;25589;51.552;13.424;2023-09-18T11:21:26;5.47;;;3.90;;
39918;SDS011;25589;51.552;13.424;2023-09-18T11:24:05;4.60;;;3.13;;
39918;SDS011;25589;51.552;13.424;2023-09-18T11:26:42;9.60;;;3.40;;
39918;SDS011;25589;51.552;13.424;2023-09-18T11:29:10;6.22;;;3.58;;
39918;SDS011;25589;51.552;13.424;2023-09-18T11:34:23;3.75;;;3.13;;
39918;SDS011;25589;51.552;13.424;2023-09-18T11:36:57;3.85;;;3.13;;
39918;SDS011;25589;51.552;13.424;2023-09-18T11:39:39;5.07;;;3.25;;
39918;SDS011;25589;51.552;13.424;2023-09-18T11:42:09;5.32;;;2.97;;
39918;SDS011;25589;51.552;13.424;2023-09-18T11:44:47;4.07;;;3.00;;
39918;SDS011;25589;51.552;13.424;2023-09-18T11:47:18;3.97;;;3.05;;
39918;SDS011;25589;51.552;13.424;2023-09-18T11:49:55;8.15;;;3.63;;
39918;SDS011;25589;51.552;13.424;2023-09-18T11:52:26;4.20;;;3.30;;
39918;SDS011;25589;51.552;13.424;2023-09-18T11:54:55;3.20;;;2.80;;
39918;SDS011;25589;51.552;13.424;2023-09-18T11:57:22;3.90;;;3.20;;
39918;SDS011;25589;51.552;13.424;2023-09-18T11:59:47;3.53;;;3.10;;
39918;SDS011;25589;51.552;13.424;2023-09-18T12:02:27;6.97;;;2.90;;
39918;SDS011;25589;51.552;13.424;2023-09-18T12:05:04;4.70;;;3.20;;
39918;SDS011;25589;51.552;13.424;2023-09-18T12:07:31;3.40;;;2.33;;
39918;SDS011;25589;51.552;13.424;2023-09-18T12:09:58;5.45;;;2.65;;
39918;SDS011;25589;51.552;13.424;2023-09-18T12:12:24;2.78;;;2.42;;
39918;SDS011;25589;51.552;13.424;2023-09-18T12:14:51;4.13;;;2.50;;
39918;SDS011;25589;51.552;13.424;2023-09-18T12:17:17;8.70;;;2.92;;
39918;SDS011;25589;51.552;13.424;2023-09-18T12:19:55;4.75;;;2.65;;
39918;SDS011;25589;51.552;13.424;2023-09-18T12:22:28;5.88;;;3.28;;
39918;SDS011;25589;51.552;13.424;2023-09-18T12:25:13;5.78;;;2.88;;
39918;SDS011;25589;51.552;13.424;2023-09-18T12:27:40;5.07;;;2.72;;
39918;SDS011;25589;51.552;13.424;2023-09-18T12:30:07;4.72;;;2.85;;
39918;SDS011;25589;51.552;13.424;2023-09-18T12:32:35;6.03;;;2.90;;
39918;SDS011;25589;51.552;13.424;2023-09-18T12:35:02;6.20;;;2.35;;
39918;SDS011;25589;51.552;13.424;2023-09-18T12:37:31;5.25;;;2.42;;
39918;SDS011;25589;51.552;13.424;2023-09-18T12:42:55;5.60;;;2.97;;
39918;SDS011;25589;51.552;13.424;2023-09-18T12:45:22;5.53;;;2.40;;
39918;SDS011;25589;51.552;13.424;2023-09-18T12:47:49;8.10;;;2.65;;
39918;SDS011;25589;51.552;13.424;2023-09-18T12:50:16;4.80;;;2.55;;
39918;SDS011;25589;51.552;13.424;2023-09-18T12:52:41;8.73;;;2.63;;
39918;SDS011;25589;51.552;13.424;2023-09-18T12:55:07;8.68;;;2.80;;
39918;SDS011;25589;51.552;13.424;2023-09-18T12:57:33;7.95;;;2.30;;
39918;SDS011;25589;51.552;13.424;2023-09-18T12:59:59;4.47;;;2.42;;
39918;SDS011;25589;51.552;13.424;2023-09-18T13:02:28;11.05;;;2.92;;
39918;SDS011;25589;51.552;13.424;2023-09-18T13:04:54;7.80;;;2.38;;
39918;SDS011;25589;51.552;13.424;2023-09-18T13:07:21;7.32;;;3.05;;
39918;SDS011;25589;51.552;13.424;2023-09-18T13:10:00;6.60;;;2.72;;
39918;SDS011;25589;51.552;13.424;2023-09-18T13:12:42;9.40;;;2.58;;
39918;SDS011;25589;51.552;13.424;2023-09-18T13:15:08;6.93;;;2.40;;
39918;SDS011;25589;51.552;13.424;2023-09-18T13:17:44;6.97;;;3.00;;
39918;SDS011;25589;51.552;13.424;2023-09-18T13:20:24;9.32;;;3.08;;
39918;SDS011;25589;51.552;13.424;2023-09-18T13:22:52;5.97;;;2.25;;
39918;SDS011;25589;51.552;13.424;2023-09-18T13:25:23;5.68;;;2.60;;
39918;SDS011;25589;51.552;13.424;2023-09-18T13:27:57;4.25;;;2.55;;
39918;SDS011;25589;51.552;13.424;2023-09-18T13:30:22;8.32;;;3.10;;
39918;SDS011;25589;51.552;13.424;2023-09-18T13:32:49;11.25;;;2.35;;
39918;SDS011;25589;51.552;13.424;2023-09-18T13:35:17;7.60;;;2.90;;
39918;SDS011;25589;51.552;13.424;2023-09-18T13:37:43;7.63;;;2.45;;
39918;SDS011;25589;51.552;13.424;2023-09-18T13:40:10;4.63;;;2.30;;
39918;SDS011;25589;51.552;13.424;2023-09-18T13:42:39;4.97;;;2.50;;
39918;SDS011;25589;51.552;13.424;2023-09-18T13:45:06;6.90;;;2.35;;
39918;SDS011;25589;51.552;13.424;2023-09-18T13:47:35;5.50;;;2.05;;
39918;SDS011;25589;51.552;13.424;2023-09-18T13:50:02;3.08;;;1.95;;
39918;SDS011;25589;51.552;13.424;2023-09-18T13:52:29;2.65;;;1.90;;
39918;SDS011;25589;51.552;13.424;2023-09-18T13:54:56;3.53;;;2.10;;
39918;SDS011;25589;51.552;13.424;2023-09-18T13:57:22;7.13;;;2.65;;
39918;SDS011;25589;51.552;13.424;2023-09-18T13:59:49;4.65;;;2.15;;
39918;SDS011;25589;51.552;13.424;2023-09-18T14:02:15;4.32;;;2.03;;
39918;SDS011;25589;51.552;13.424;2023-09-18T14:04:41;9.00;;;2.72;;
39918;SDS011;25589;51.552;13.424;2023-09-18T14:07:07;6.00;;;2.60;;
39918;SDS011;25589;51.552;13.424;2023-09-18T14:09:34;10.65;;;2.67;;
39918;SDS011;25589;51.552;13.424;2023-09-18T14:12:00;7.53;;;2.85;;
39918;SDS011;25589;51.552;13.424;2023-09-18T14:14:27;5.78;;;2.00;;
39918;SDS011;25589;51.552;13.424;2023-09-18T14:16:53;7.18;;;3.20;;
39918;SDS011;25589;51.552;13.424;2023-09-18T14:19:19;7.25;;;2.60;;
39918;SDS011;25589;51.552;13.424;2023-09-18T14:21:45;4.72;;;2.63;;
39918;SDS011;25589;51.552;13.424;2023-09-18T14:24:10;6.05;;;2.47;;
39918;SDS011;25589;51.552;13.424;2023-09-18T14:26:36;5.55;;;2.83;;
39918;SDS011;25589;51.552;13.424;2023-09-18T14:29:09;6.65;;;2.40;;
39918;SDS011;25589;51.552;13.424;2023-09-18T14:31:38;4.80;;;2.28;;
39918;SDS011;25589;51.552;13.424;2023-09-18T14:34:04;6.90;;;2.33;;
39918;SDS011;25589;51.552;13.424;2023-09-18T14:36:33;5.22;;;2.20;;
39918;SDS011;25589;51.552;13.424;2023-09-18T14:39:00;6.32;;;2.10;;
39918;SDS011;25589;51.552;13.424;2023-09-18T14:41:27;5.45;;;2.53;;
39918;SDS011;25589;51.552;13.424;2023-09-18T14:43:53;4.20;;;1.98;;
39918;SDS011;25589;51.552;13.424;2023-09-18T14:46:18;3.30;;;2.10;;
39918;SDS011;25589;51.552;13.424;2023-09-18T14:48:45;4.75;;;1.58;;
39918;SDS011;25589;51.552;13.424;2023-09-18T14:51:11;3.50;;;1.70;;
39918;SDS011;25589;51.552;13.424;2023-09-18T14:53:36;4.75;;;1.55;;